createdAt,value
2022-12-18T00:00:09.255Z,12.33
2022-12-18T00:02:15.465Z,10.73
2022-12-18T00:04:25.914Z,9.00
2022-12-18T00:06:29.972Z,9.67
2022-12-18T00:08:31.658Z,9.67
2022-12-18T00:10:34.800Z,9.43
2022-12-18T00:12:37.646Z,9.90
2022-12-18T00:14:39.405Z,10.80
2022-12-18T00:16:50.145Z,11.60
2022-12-18T00:18:54.381Z,9.03
2022-12-18T00:21:04.830Z,11.43
2022-12-18T00:23:07.697Z,11.27
2022-12-18T00:25:11.592Z,10.63
2022-12-18T00:27:13.281Z,9.87
2022-12-18T00:29:15.251Z,9.57
2022-12-18T00:31:21.386Z,9.53
2022-12-18T00:33:23.112Z,10.10
2022-12-18T00:35:24.813Z,8.77
2022-12-18T00:37:29.009Z,11.90
2022-12-18T00:39:32.001Z,8.47
2022-12-18T00:41:55.804Z,10.37
2022-12-18T00:43:57.493Z,10.47
2022-12-18T00:45:59.188Z,9.93
2022-12-18T00:48:01.141Z,10.40
2022-12-18T00:50:03.438Z,11.57
2022-12-18T00:52:05.466Z,13.00
2022-12-18T00:54:07.169Z,14.60
2022-12-18T00:56:08.923Z,9.23
2022-12-18T00:58:15.568Z,9.63
2022-12-18T01:00:17.390Z,11.73
2022-12-18T01:02:19.197Z,10.27
2022-12-18T01:04:20.987Z,9.33
2022-12-18T01:06:22.607Z,9.07
2022-12-18T01:08:24.631Z,12.30
2022-12-18T01:10:26.968Z,11.53
2022-12-18T01:12:32.673Z,14.30
2022-12-18T01:14:34.452Z,11.70
2022-12-18T01:16:36.432Z,12.00
2022-12-18T01:18:40.347Z,13.87
2022-12-18T01:20:42.016Z,10.93
2022-12-18T01:22:43.664Z,13.63
2022-12-18T01:24:45.533Z,12.00
2022-12-18T01:26:48.726Z,11.80
2022-12-18T01:28:50.483Z,13.03
2022-12-18T01:30:52.531Z,11.63
2022-12-18T01:32:55.134Z,12.87
2022-12-18T01:34:56.874Z,9.93
2022-12-18T01:36:58.645Z,12.50
2022-12-18T01:39:04.001Z,11.13
2022-12-18T01:41:05.635Z,9.77
2022-12-18T01:43:12.299Z,11.47
2022-12-18T01:45:17.049Z,10.80
2022-12-18T01:47:35.687Z,12.20
2022-12-18T01:49:37.426Z,11.43
2022-12-18T01:51:39.155Z,11.53
2022-12-18T01:53:43.117Z,10.73
2022-12-18T01:55:55.755Z,11.57
2022-12-18T01:58:01.169Z,11.97
2022-12-18T02:00:13.905Z,10.47
2022-12-18T02:02:17.697Z,11.30
2022-12-18T02:04:24.793Z,10.90
2022-12-18T02:06:38.082Z,10.73
2022-12-18T02:09:04.151Z,11.63
2022-12-18T02:11:24.725Z,11.47
2022-12-18T02:13:51.568Z,11.23
2022-12-18T02:16:07.260Z,11.90
2022-12-18T02:18:18.511Z,11.77
2022-12-18T02:20:31.962Z,13.93
2022-12-18T02:23:10.434Z,12.80
2022-12-18T02:25:59.445Z,12.83
2022-12-18T02:28:09.867Z,10.73
2022-12-18T02:30:13.557Z,12.20
2022-12-18T02:32:24.256Z,13.57
2022-12-18T02:34:31.135Z,11.67
2022-12-18T02:36:35.516Z,13.27
2022-12-18T02:38:37.790Z,12.30
2022-12-18T02:40:47.353Z,13.23
2022-12-18T02:42:52.052Z,12.30
2022-12-18T02:44:57.963Z,11.60
2022-12-18T02:47:00.858Z,11.60
2022-12-18T02:49:27.195Z,12.20
2022-12-18T02:51:47.608Z,12.97
2022-12-18T02:54:15.872Z,10.90
2022-12-18T02:56:25.744Z,14.43
2022-12-18T02:58:56.750Z,11.70
2022-12-18T03:02:13.303Z,10.70
2022-12-18T03:04:23.483Z,13.60
2022-12-18T03:06:29.977Z,11.43
2022-12-18T03:08:38.919Z,12.37
2022-12-18T03:10:47.034Z,12.03
2022-12-18T03:13:01.139Z,13.07
2022-12-18T03:15:05.885Z,12.23
2022-12-18T03:17:15.752Z,13.63
2022-12-18T03:19:21.251Z,11.73
2022-12-18T03:21:32.957Z,14.00
2022-12-18T03:23:45.207Z,14.00
2022-12-18T03:25:51.139Z,12.93
2022-12-18T03:27:57.422Z,14.33
2022-12-18T03:30:08.744Z,16.20
2022-12-18T03:32:25.779Z,14.53
2022-12-18T03:34:32.250Z,15.23
2022-12-18T03:36:37.495Z,14.27
2022-12-18T03:38:39.351Z,15.47
2022-12-18T03:41:06.787Z,12.73
2022-12-18T03:43:43.813Z,14.80
2022-12-18T03:46:02.161Z,12.67
2022-12-18T03:48:21.051Z,14.17
2022-12-18T03:50:53.915Z,12.60
2022-12-18T03:53:12.680Z,15.73
2022-12-18T03:55:14.868Z,16.93
2022-12-18T03:57:21.430Z,13.10
2022-12-18T03:59:27.574Z,13.33
2022-12-18T04:01:36.551Z,12.83
2022-12-18T04:03:39.954Z,12.10
2022-12-18T04:05:44.863Z,13.77
2022-12-18T04:07:54.787Z,14.40
2022-12-18T04:09:59.155Z,15.13
2022-12-18T04:12:01.327Z,12.83
2022-12-18T04:14:07.028Z,13.17
2022-12-18T04:16:10.426Z,12.17
2022-12-18T04:18:15.676Z,13.80
2022-12-18T04:20:19.856Z,13.47
2022-12-18T04:22:22.844Z,14.90
2022-12-18T04:24:29.533Z,13.17
2022-12-18T04:26:43.321Z,13.80
2022-12-18T04:28:53.626Z,12.37
2022-12-18T04:30:56.002Z,12.83
2022-12-18T04:33:00.233Z,12.60
2022-12-18T04:35:03.006Z,14.20
2022-12-18T04:37:05.155Z,17.37
2022-12-18T04:39:07.638Z,14.07
2022-12-18T04:41:09.761Z,13.13
2022-12-18T04:43:14.167Z,12.37
2022-12-18T04:45:16.076Z,14.27
2022-12-18T04:47:17.769Z,14.83
2022-12-18T04:49:19.447Z,13.73
2022-12-18T04:51:26.453Z,13.43
2022-12-18T04:53:28.568Z,14.00
2022-12-18T04:55:30.445Z,13.97
2022-12-18T04:57:32.069Z,15.77
2022-12-18T04:59:33.832Z,14.13
2022-12-18T05:01:35.731Z,14.50
2022-12-18T05:03:39.465Z,14.77
2022-12-18T05:05:41.374Z,14.07
2022-12-18T05:07:43.064Z,14.90
2022-12-18T05:09:44.808Z,13.97
2022-12-18T05:11:47.759Z,17.23
2022-12-18T05:13:52.030Z,14.47
2022-12-18T05:15:54.722Z,13.80
2022-12-18T05:17:59.643Z,17.33
2022-12-18T05:20:01.806Z,17.30
2022-12-18T05:22:03.561Z,15.80
2022-12-18T05:24:05.595Z,15.23
2022-12-18T05:26:08.672Z,14.93
2022-12-18T05:28:10.313Z,17.13
2022-12-18T05:30:13.131Z,16.00
2022-12-18T05:32:14.745Z,15.23
2022-12-18T05:34:16.503Z,15.50
2022-12-18T05:36:18.384Z,16.23
2022-12-18T05:38:24.326Z,16.53
2022-12-18T05:40:28.693Z,14.67
2022-12-18T05:42:32.087Z,15.27
2022-12-18T05:44:35.252Z,16.77
2022-12-18T05:46:37.377Z,16.50
2022-12-18T05:48:39.149Z,18.33
2022-12-18T05:50:45.467Z,16.30
2022-12-18T05:52:49.367Z,17.77
2022-12-18T05:54:51.038Z,17.30
2022-12-18T05:56:52.717Z,17.57
2022-12-18T05:58:56.886Z,21.13
2022-12-18T06:01:06.208Z,18.53
2022-12-18T06:03:12.861Z,17.37
2022-12-18T06:05:14.728Z,18.67
2022-12-18T06:07:18.774Z,15.27
2022-12-18T06:09:20.676Z,16.43
2022-12-18T06:11:30.422Z,16.70
2022-12-18T06:13:32.132Z,17.37
2022-12-18T06:15:34.010Z,16.83
2022-12-18T06:17:41.337Z,16.73
2022-12-18T06:19:43.246Z,19.13
2022-12-18T06:21:44.949Z,18.17
2022-12-18T06:23:46.631Z,17.90
2022-12-18T06:25:50.483Z,18.27
2022-12-18T06:27:52.253Z,18.37
2022-12-18T06:29:53.956Z,16.03
2022-12-18T06:31:55.702Z,18.20
2022-12-18T06:33:57.474Z,15.87
2022-12-18T06:36:17.646Z,15.90
2022-12-18T06:38:19.361Z,17.20
2022-12-18T06:40:21.011Z,15.03
2022-12-18T06:42:25.557Z,15.47
2022-12-18T06:44:27.207Z,17.30
2022-12-18T06:46:28.884Z,15.27
2022-12-18T06:48:30.852Z,16.57
2022-12-18T06:50:32.552Z,15.73
2022-12-18T06:52:36.307Z,15.97
2022-12-18T06:54:38.049Z,16.97
2022-12-18T06:56:39.717Z,19.20
2022-12-18T06:58:41.549Z,20.40
2022-12-18T07:00:43.270Z,20.00
2022-12-18T07:02:45.965Z,22.47
2022-12-18T07:04:47.716Z,23.17
2022-12-18T07:06:49.429Z,18.20
2022-12-18T07:08:51.901Z,16.63
2022-12-18T07:10:56.400Z,19.17
2022-12-18T07:13:01.011Z,16.47
2022-12-18T07:15:03.085Z,19.40
2022-12-18T07:17:04.786Z,20.03
2022-12-18T07:19:13.447Z,19.40
2022-12-18T07:21:18.332Z,18.43
2022-12-18T07:23:19.973Z,17.07
2022-12-18T07:25:24.902Z,14.53
2022-12-18T07:27:26.567Z,15.87
2022-12-18T07:29:28.192Z,14.90
2022-12-18T07:31:29.940Z,15.57
2022-12-18T07:33:35.292Z,14.80
2022-12-18T07:35:36.980Z,16.60
2022-12-18T07:37:38.626Z,14.80
2022-12-18T07:39:40.275Z,16.37
2022-12-18T07:41:47.363Z,17.93
2022-12-18T07:43:51.272Z,16.33
2022-12-18T07:45:55.275Z,17.03
2022-12-18T07:47:57.011Z,16.20
2022-12-18T07:50:00.175Z,16.40
2022-12-18T07:52:02.640Z,17.03
2022-12-18T07:54:04.435Z,16.60
2022-12-18T07:58:31.848Z,15.67
2022-12-18T08:00:33.496Z,17.27
2022-12-18T08:02:37.810Z,17.97
2022-12-18T08:04:39.559Z,18.00
2022-12-18T08:06:47.783Z,18.50
2022-12-18T08:08:51.094Z,17.87
2022-12-18T08:10:52.776Z,19.63
2022-12-18T08:12:54.468Z,19.13
2022-12-18T08:14:56.130Z,19.40
2022-12-18T08:16:57.915Z,20.07
2022-12-18T08:18:59.626Z,22.77
2022-12-18T08:21:19.122Z,23.33
2022-12-18T08:23:26.449Z,23.87
2022-12-18T08:25:30.264Z,26.37
2022-12-18T08:27:31.944Z,26.50
2022-12-18T08:29:34.672Z,29.70
2022-12-18T08:31:36.555Z,35.30
2022-12-18T08:33:40.227Z,28.47
2022-12-18T08:35:45.983Z,29.63
2022-12-18T08:37:47.953Z,28.27
2022-12-18T08:39:49.664Z,27.67
2022-12-18T08:42:10.511Z,26.87
2022-12-18T08:44:30.961Z,28.63
2022-12-18T08:46:36.571Z,32.07
2022-12-18T08:48:38.279Z,33.37
2022-12-18T08:50:39.989Z,32.53
2022-12-18T08:52:41.626Z,34.17
2022-12-18T08:54:43.452Z,33.27
2022-12-18T08:56:45.078Z,37.37
2022-12-18T08:58:46.899Z,46.07
2022-12-18T09:00:48.828Z,45.50
2022-12-18T09:02:50.700Z,43.03
2022-12-18T09:04:57.133Z,41.17
2022-12-18T09:07:01.413Z,31.97
2022-12-18T09:09:05.973Z,35.03
2022-12-18T09:11:24.747Z,30.40
2022-12-18T09:13:28.377Z,30.50
2022-12-18T09:15:30.108Z,28.47
2022-12-18T09:17:34.000Z,27.27
2022-12-18T09:19:35.713Z,26.93
2022-12-18T09:21:37.834Z,24.20
2022-12-18T09:23:39.818Z,24.63
2022-12-18T09:25:41.693Z,24.47
2022-12-18T09:27:51.529Z,24.27
2022-12-18T09:29:57.529Z,24.00
2022-12-18T09:31:59.221Z,24.47
2022-12-18T09:34:03.072Z,24.47
2022-12-18T09:36:07.533Z,21.90
2022-12-18T09:38:14.134Z,20.03
2022-12-18T09:40:20.908Z,20.50
2022-12-18T09:42:23.160Z,22.37
2022-12-18T09:44:29.789Z,23.00
2022-12-18T09:46:35.483Z,23.27
2022-12-18T09:48:43.804Z,20.83
2022-12-18T09:50:47.086Z,21.20
2022-12-18T09:52:54.221Z,19.00
2022-12-18T09:55:20.493Z,20.10
2022-12-18T09:57:27.216Z,16.67
2022-12-18T09:59:36.593Z,18.83
2022-12-18T10:01:44.200Z,18.53
2022-12-18T10:03:46.305Z,19.90
2022-12-18T10:06:02.857Z,17.50
2022-12-18T10:08:16.628Z,17.40
2022-12-18T10:10:38.067Z,15.70
2022-12-18T10:13:18.474Z,18.20
2022-12-18T10:15:37.267Z,18.87
2022-12-18T10:18:17.277Z,17.17
2022-12-18T10:20:46.279Z,19.33
2022-12-18T10:23:12.266Z,16.67
2022-12-18T10:25:22.763Z,19.00
2022-12-18T10:27:27.360Z,17.27
2022-12-18T10:29:29.507Z,18.67
2022-12-18T10:31:31.247Z,17.10
2022-12-18T10:33:34.522Z,17.73
2022-12-18T10:35:37.203Z,17.87
2022-12-18T10:38:22.557Z,17.87
2022-12-18T10:40:27.977Z,20.50
2022-12-18T10:42:29.653Z,23.30
2022-12-18T10:44:31.337Z,22.23
2022-12-18T10:46:33.259Z,22.10
2022-12-18T10:48:58.669Z,21.93
2022-12-18T10:51:10.864Z,22.23
2022-12-18T10:53:26.426Z,20.77
2022-12-18T10:55:40.649Z,21.30
2022-12-18T10:57:44.555Z,19.33
2022-12-18T10:59:57.013Z,18.53
2022-12-18T11:01:59.325Z,18.87
2022-12-18T11:04:08.383Z,20.23
2022-12-18T11:06:17.697Z,18.70
2022-12-18T11:08:24.822Z,19.10
2022-12-18T11:10:35.731Z,18.87
2022-12-18T11:12:37.405Z,18.33
2022-12-18T11:14:57.357Z,17.40
2022-12-18T11:17:24.946Z,18.10
2022-12-18T11:19:36.739Z,19.50
2022-12-18T11:21:43.215Z,17.40
2022-12-18T11:23:54.344Z,17.17
2022-12-18T11:25:58.937Z,16.07
2022-12-18T11:28:06.381Z,17.73
2022-12-18T11:30:10.732Z,15.03
2022-12-18T11:32:28.219Z,15.50
2022-12-18T11:34:32.676Z,15.63
2022-12-18T11:36:39.692Z,14.30
2022-12-18T11:38:44.031Z,16.33
2022-12-18T11:40:52.567Z,16.63
2022-12-18T11:43:39.506Z,18.00
2022-12-18T11:46:13.535Z,19.20
2022-12-18T11:48:29.323Z,17.03
2022-12-18T11:50:37.235Z,18.97
2022-12-18T11:52:41.134Z,16.67
2022-12-18T11:54:45.131Z,16.57
2022-12-18T11:57:05.580Z,18.83
2022-12-18T11:59:26.642Z,16.37
2022-12-18T12:01:52.512Z,16.20
2022-12-18T12:04:26.846Z,14.70
2022-12-18T12:06:43.698Z,17.97
2022-12-18T12:09:04.857Z,19.00
2022-12-18T12:11:44.540Z,15.77
2022-12-18T12:14:17.976Z,16.50
2022-12-18T12:16:47.987Z,18.37
2022-12-18T12:19:20.548Z,17.87
2022-12-18T12:21:34.257Z,17.17
2022-12-18T12:23:59.416Z,18.87
2022-12-18T12:26:15.331Z,17.70
2022-12-18T12:28:54.616Z,19.73
2022-12-18T12:31:11.987Z,19.20
2022-12-18T12:33:56.580Z,21.73
2022-12-18T12:36:12.960Z,23.17
2022-12-18T12:38:25.238Z,21.93
2022-12-18T12:43:15.359Z,18.63
2022-12-18T12:45:29.295Z,18.53
2022-12-18T12:47:42.920Z,20.23
2022-12-18T12:49:48.468Z,23.20
2022-12-18T12:52:08.705Z,17.20
2022-12-18T12:54:20.253Z,19.63
2022-12-18T12:56:23.221Z,20.17
2022-12-18T12:58:33.093Z,18.50
2022-12-18T13:00:54.134Z,18.20
2022-12-18T13:03:31.421Z,19.83
2022-12-18T13:05:50.942Z,19.77
2022-12-18T13:07:58.542Z,20.40
2022-12-18T13:10:13.502Z,16.70
2022-12-18T13:12:37.362Z,17.73
2022-12-18T13:14:41.485Z,19.70
2022-12-18T13:16:45.992Z,19.53
2022-12-18T13:18:53.620Z,18.27
2022-12-18T13:20:59.910Z,20.03
2022-12-18T13:23:26.686Z,20.67
2022-12-18T13:25:31.187Z,28.40
2022-12-18T13:27:59.503Z,28.00
2022-12-18T13:30:01.231Z,25.37
2022-12-18T13:32:21.357Z,26.70
2022-12-18T13:34:31.329Z,24.33
2022-12-18T13:36:34.489Z,21.23
2022-12-18T13:38:40.227Z,21.60
2022-12-18T13:40:47.662Z,24.17
2022-12-18T13:43:10.450Z,24.43
2022-12-18T13:45:58.330Z,20.73
2022-12-18T13:48:03.594Z,20.93
2022-12-18T13:50:28.547Z,22.67
2022-12-18T13:52:40.144Z,25.60
2022-12-18T13:54:51.551Z,28.47
2022-12-18T13:56:53.956Z,26.13
2022-12-18T13:59:18.536Z,26.67
2022-12-18T14:01:27.205Z,29.93
2022-12-18T14:03:31.520Z,29.87
2022-12-18T14:05:38.647Z,28.23
2022-12-18T14:07:48.339Z,25.50
2022-12-18T14:10:42.138Z,25.03
2022-12-18T14:12:51.691Z,23.73
2022-12-18T14:14:55.209Z,22.10
2022-12-18T14:16:57.566Z,23.10
2022-12-18T14:19:04.558Z,24.87
2022-12-18T14:21:26.895Z,20.77
2022-12-18T14:23:40.946Z,26.97
2022-12-18T14:25:47.864Z,24.23
2022-12-18T14:28:02.696Z,21.93
2022-12-18T14:30:23.857Z,25.10
2022-12-18T14:32:25.669Z,24.67
2022-12-18T14:34:27.677Z,25.40
2022-12-18T14:36:30.307Z,25.77
2022-12-18T14:38:40.136Z,27.43
2022-12-18T14:40:41.951Z,26.80
2022-12-18T14:42:44.534Z,23.30
2022-12-18T14:47:16.444Z,24.53
2022-12-18T14:49:30.161Z,23.03
2022-12-18T14:51:34.353Z,23.87
2022-12-18T14:53:39.382Z,24.20
2022-12-18T14:55:47.957Z,22.70
2022-12-18T14:57:55.320Z,23.10
2022-12-18T15:00:06.984Z,24.07
2022-12-18T15:02:29.387Z,21.33
2022-12-18T15:04:36.190Z,22.00
2022-12-18T15:06:40.826Z,23.33
2022-12-18T15:08:43.557Z,25.77
2022-12-18T15:10:49.364Z,25.50
2022-12-18T15:12:54.876Z,28.30
2022-12-18T15:14:56.582Z,32.90
2022-12-18T15:17:01.330Z,32.17
2022-12-18T15:19:03.139Z,29.30
2022-12-18T15:21:17.285Z,28.50
2022-12-18T15:23:36.690Z,27.37
2022-12-18T15:25:39.454Z,23.73
2022-12-18T15:27:47.844Z,24.83
2022-12-18T15:30:09.781Z,24.03
2022-12-18T15:32:20.751Z,22.47
2022-12-18T15:34:23.933Z,21.63
2022-12-18T15:36:26.942Z,23.67
2022-12-18T15:38:31.478Z,22.60
2022-12-18T15:40:34.274Z,24.50
2022-12-18T15:42:56.427Z,25.00
2022-12-18T15:44:58.082Z,28.50
2022-12-18T15:46:59.964Z,26.57
2022-12-18T15:49:03.340Z,23.60
2022-12-18T15:51:12.374Z,26.63
2022-12-18T15:53:14.008Z,27.67
2022-12-18T15:55:37.419Z,34.33
2022-12-18T15:57:39.892Z,29.97
2022-12-18T15:59:43.637Z,30.20
2022-12-18T16:01:48.011Z,30.87
2022-12-18T16:03:52.169Z,29.30
2022-12-18T16:05:56.450Z,26.80
2022-12-18T16:07:59.617Z,27.77
2022-12-18T16:10:02.804Z,31.13
2022-12-18T16:12:06.987Z,28.97
2022-12-18T16:14:18.056Z,28.90
2022-12-18T16:16:19.826Z,28.83
2022-12-18T16:18:23.475Z,28.83
2022-12-18T16:20:29.056Z,38.83
2022-12-18T16:22:31.196Z,42.73
2022-12-18T16:24:34.600Z,43.57
2022-12-18T16:26:36.235Z,47.30
2022-12-18T16:28:37.976Z,41.27
2022-12-18T16:30:42.146Z,38.17
2022-12-18T16:32:43.998Z,37.30
2022-12-18T16:34:47.031Z,34.07
2022-12-18T16:36:49.989Z,36.13
2022-12-18T16:38:55.642Z,35.17
2022-12-18T16:41:15.924Z,36.90
2022-12-18T16:43:17.563Z,42.00
2022-12-18T16:45:19.976Z,67.43
2022-12-18T16:47:21.672Z,55.00
2022-12-18T16:49:23.376Z,55.33
2022-12-18T16:51:25.200Z,50.03
2022-12-18T16:53:29.586Z,44.17
2022-12-18T16:55:36.672Z,40.37
2022-12-18T16:57:41.943Z,39.83
2022-12-18T16:59:47.499Z,38.80
2022-12-18T17:01:51.844Z,40.93
2022-12-18T17:04:01.126Z,40.33
2022-12-18T17:06:06.134Z,52.27
2022-12-18T17:08:07.816Z,53.60
2022-12-18T17:10:09.936Z,44.53
2022-12-18T17:12:11.832Z,49.80
2022-12-18T17:14:16.710Z,48.30
2022-12-18T17:16:21.217Z,41.60
2022-12-18T17:18:23.640Z,45.50
2022-12-18T17:20:27.820Z,42.07
2022-12-18T17:22:32.216Z,46.03
2022-12-18T17:24:35.346Z,43.00
2022-12-18T17:26:37.656Z,42.83
2022-12-18T17:28:40.519Z,39.93
2022-12-18T17:30:42.140Z,38.03
2022-12-18T17:32:43.789Z,36.90
2022-12-18T17:34:45.843Z,33.77
2022-12-18T17:36:47.525Z,33.33
2022-12-18T17:38:54.085Z,31.43
2022-12-18T17:41:01.630Z,30.67
2022-12-18T17:43:05.996Z,29.67
2022-12-18T17:45:09.450Z,28.63
2022-12-18T17:47:14.399Z,30.90
2022-12-18T17:49:18.209Z,31.10
2022-12-18T17:51:20.010Z,28.60
2022-12-18T17:53:23.824Z,30.50
2022-12-18T17:55:25.519Z,32.80
2022-12-18T17:57:27.197Z,36.67
2022-12-18T17:59:34.116Z,36.50
2022-12-18T18:01:44.550Z,32.63
2022-12-18T18:03:48.677Z,31.80
2022-12-18T18:05:57.851Z,34.23
2022-12-18T18:08:01.409Z,31.90
2022-12-18T18:10:03.694Z,39.03
2022-12-18T18:12:24.062Z,34.07
2022-12-18T18:14:26.989Z,35.83
2022-12-18T18:16:35.338Z,44.53
2022-12-18T18:18:39.716Z,42.27
2022-12-18T18:20:41.415Z,41.40
2022-12-18T18:22:47.236Z,41.33
2022-12-18T18:24:48.937Z,38.60
2022-12-18T18:26:51.009Z,35.40
2022-12-18T18:28:54.274Z,33.27
2022-12-18T18:30:56.136Z,32.47
2022-12-18T18:33:05.504Z,33.70
2022-12-18T18:35:19.392Z,39.47
2022-12-18T18:37:31.164Z,37.90
2022-12-18T18:39:33.146Z,37.33
2022-12-18T18:41:34.768Z,37.53
2022-12-18T18:43:36.904Z,36.23
2022-12-18T18:45:38.676Z,36.60
2022-12-18T18:47:41.813Z,38.53
2022-12-18T18:49:43.484Z,40.93
2022-12-18T18:51:45.115Z,45.83
2022-12-18T18:53:48.791Z,43.17
2022-12-18T18:56:04.194Z,42.57
2022-12-18T18:58:12.621Z,45.07
2022-12-18T19:00:15.369Z,42.77
2022-12-18T19:02:17.744Z,40.73
2022-12-18T19:04:25.610Z,58.87
2022-12-18T19:06:29.339Z,44.50
2022-12-18T19:08:35.136Z,43.37
2022-12-18T19:10:41.592Z,43.37
2022-12-18T19:13:03.396Z,44.43
2022-12-18T19:15:07.904Z,41.90
2022-12-18T19:17:10.268Z,40.30
2022-12-18T19:19:12.893Z,37.10
2022-12-18T19:21:14.912Z,41.97
2022-12-18T19:23:16.591Z,40.60
2022-12-18T19:25:20.650Z,39.40
2022-12-18T19:27:22.583Z,40.23
2022-12-18T19:29:24.372Z,38.77
2022-12-18T19:31:33.524Z,46.07
2022-12-18T19:33:43.544Z,42.73
2022-12-18T19:35:48.090Z,39.73
2022-12-18T19:37:49.909Z,41.93
2022-12-18T19:39:51.804Z,40.43
2022-12-18T19:41:53.564Z,35.23
2022-12-18T19:43:56.180Z,39.57
2022-12-18T19:46:00.511Z,39.80
2022-12-18T19:48:04.479Z,35.20
2022-12-18T19:50:10.505Z,37.13
2022-12-18T19:52:12.786Z,38.13
2022-12-18T19:54:17.286Z,43.03
2022-12-18T19:56:21.729Z,41.60
2022-12-18T19:58:25.800Z,39.13
2022-12-18T20:00:29.675Z,42.13
2022-12-18T20:02:36.212Z,38.23
2022-12-18T20:04:38.075Z,38.97
2022-12-18T20:06:53.597Z,36.93
2022-12-18T20:09:00.145Z,37.70
2022-12-18T20:11:02.481Z,38.27
2022-12-18T20:13:07.262Z,39.80
2022-12-18T20:15:10.013Z,41.33
2022-12-18T20:17:11.679Z,38.87
2022-12-18T20:19:14.202Z,40.90
2022-12-18T20:21:17.534Z,38.50
2022-12-18T20:23:23.630Z,38.00
2022-12-18T20:25:28.387Z,35.90
2022-12-18T20:27:30.074Z,34.60
2022-12-18T20:29:31.887Z,36.80
2022-12-18T20:31:33.711Z,32.47
2022-12-18T20:33:36.054Z,33.83
2022-12-18T20:35:37.871Z,29.13
2022-12-18T20:37:46.126Z,30.73
2022-12-18T20:39:51.941Z,31.30
2022-12-18T20:41:56.028Z,29.37
2022-12-18T20:43:57.817Z,31.70
2022-12-18T20:46:04.449Z,27.50
2022-12-18T20:48:06.332Z,30.03
2022-12-18T20:50:08.466Z,29.60
2022-12-18T20:52:10.222Z,30.77
2022-12-18T20:54:12.150Z,31.87
2022-12-18T20:56:21.574Z,34.10
2022-12-18T20:58:23.772Z,37.23
2022-12-18T21:00:25.433Z,42.27
2022-12-18T21:02:27.276Z,46.03
2022-12-18T21:04:31.524Z,44.70
2022-12-18T21:06:33.471Z,42.93
2022-12-18T21:08:35.169Z,45.67
2022-12-18T21:10:38.913Z,47.63
2022-12-18T21:12:49.767Z,47.80
2022-12-18T21:15:06.427Z,48.20
2022-12-18T21:17:08.204Z,46.77
2022-12-18T21:19:15.358Z,42.23
2022-12-18T21:21:20.670Z,43.13
2022-12-18T21:23:26.485Z,44.60
2022-12-18T21:25:29.436Z,42.60
2022-12-18T21:27:31.184Z,45.37
2022-12-18T21:29:35.682Z,43.90
2022-12-18T21:31:38.487Z,45.47
2022-12-18T21:33:40.184Z,43.33
2022-12-18T21:35:41.812Z,43.23
2022-12-18T21:37:43.469Z,41.70
2022-12-18T21:39:47.104Z,42.63
2022-12-18T21:42:07.326Z,40.77
2022-12-18T21:44:12.688Z,40.60
2022-12-18T21:46:14.450Z,39.77
2022-12-18T21:48:16.153Z,37.93
2022-12-18T21:50:17.961Z,39.53
2022-12-18T21:52:24.837Z,37.10
2022-12-18T21:54:34.364Z,38.63
2022-12-18T21:56:47.981Z,36.97
2022-12-18T21:58:56.924Z,41.80
2022-12-18T22:00:59.186Z,44.63
2022-12-18T22:03:18.314Z,43.33
2022-12-18T22:05:21.044Z,41.03
2022-12-18T22:07:22.756Z,43.53
2022-12-18T22:09:25.374Z,43.53
2022-12-18T22:11:27.061Z,43.80
2022-12-18T22:13:29.012Z,41.03
2022-12-18T22:15:30.735Z,37.47
2022-12-18T22:17:35.088Z,38.70
2022-12-18T22:19:42.797Z,34.63
2022-12-18T22:21:49.259Z,35.43
2022-12-18T22:23:54.799Z,32.33
2022-12-18T22:25:56.893Z,31.00
2022-12-18T22:28:17.084Z,32.17
2022-12-18T22:30:18.887Z,32.57
2022-12-18T22:32:30.996Z,31.90
2022-12-18T22:34:36.437Z,32.43
2022-12-18T22:36:41.410Z,34.70
2022-12-18T22:38:43.165Z,34.10
2022-12-18T22:40:44.871Z,32.50
2022-12-18T22:42:46.548Z,33.00
2022-12-18T22:44:50.655Z,37.37
2022-12-18T22:47:06.441Z,39.60
2022-12-18T22:49:14.711Z,33.77
2022-12-18T22:51:17.880Z,34.43
2022-12-18T22:53:19.609Z,35.43
2022-12-18T22:55:21.261Z,37.53
2022-12-18T22:57:23.801Z,36.30
2022-12-18T22:59:25.497Z,33.13
2022-12-18T23:01:29.450Z,32.23
2022-12-18T23:03:34.660Z,32.20
2022-12-18T23:05:36.346Z,32.50
2022-12-18T23:07:37.996Z,32.93
2022-12-18T23:09:40.016Z,29.97
2022-12-18T23:11:45.237Z,30.53
2022-12-18T23:13:47.085Z,31.27
2022-12-18T23:15:48.894Z,29.43
2022-12-18T23:17:50.584Z,32.97
2022-12-18T23:19:54.928Z,28.73
2022-12-18T23:21:58.576Z,31.37
2022-12-18T23:24:00.275Z,32.40
2022-12-18T23:26:08.085Z,34.30
2022-12-18T23:28:10.161Z,30.70
2022-12-18T23:30:12.376Z,33.73
2022-12-18T23:32:16.167Z,31.63
2022-12-18T23:34:17.980Z,31.07
2022-12-18T23:36:22.986Z,32.53
2022-12-18T23:38:27.448Z,32.20
2022-12-18T23:40:29.950Z,33.17
2022-12-18T23:42:31.609Z,32.60
2022-12-18T23:44:33.889Z,36.23
2022-12-18T23:46:37.388Z,33.73
2022-12-18T23:48:41.387Z,35.20
2022-12-18T23:50:43.094Z,31.27
2022-12-18T23:52:46.981Z,36.80
2022-12-18T23:54:48.779Z,32.37
2022-12-18T23:56:52.773Z,30.93
2022-12-18T23:58:54.951Z,34.23
